<?xml version="1.0" encoding="UTF-8" standalone="no" ?>
<gpx xmlns="http://www.topografix.com/GPX/1/1" xmlns:xsi="http://www.w3.org/2001/XMLSchema-instance" xsi:schemaLocation="http://www.topografix.com/GPX/1/1 http://www.topografix.com/GPX/1/1/gpx.xsd" version="1.1" creator="VisuGPX - https://www.visugpx.com">
  <metadata>
    <name>Venise-Pamir J1</name>
    <desc><![CDATA[Venise - Caneva à vélo droit
Zone très plate...]]></desc>
  </metadata>
  <trk>
    <name><![CDATA[Venise-Pamir J1_1]]></name>
    <trkseg>
      <trkpt lat="45.50478" lon="12.33352">
        <ele>1.5</ele>
        <time>2018-06-02T15:28:37.000Z</time>
      </trkpt>
      <trkpt lat="45.50478" lon="12.33352">
        <ele>1.5</ele>
        <time>2018-06-02T15:00:00.000Z</time>
      </trkpt>
      <trkpt lat="45.63455" lon="12.39256">
        <ele>1.6</ele>
        <time>2018-06-02T15:30:38.000Z</time>
      </trkpt>
      <trkpt lat="45.6363" lon="12.40172">
        <ele>3.9</ele>
        <time>2018-06-02T15:32:39.000Z</time>
      </trkpt>
      <trkpt lat="45.63705" lon="12.40566">
        <ele>4.2</ele>
        <time>2018-06-02T15:34:40.000Z</time>
      </trkpt>
      <trkpt lat="45.64098" lon="12.41223">
        <ele>2.7</ele>
        <time>2018-06-02T15:36:41.000Z</time>
      </trkpt>
      <trkpt lat="45.64578" lon="12.41793">
        <ele>-0.2</ele>
        <time>2018-06-02T15:38:42.000Z</time>
      </trkpt>
      <trkpt lat="45.65032" lon="12.42339">
        <ele>13.6</ele>
        <time>2018-06-02T15:40:43.000Z</time>
      </trkpt>
      <trkpt lat="45.65434" lon="12.42782">
        <ele>7</ele>
        <time>2018-06-02T15:42:44.000Z</time>
      </trkpt>
      <trkpt lat="45.65855" lon="12.43192">
        <ele>3.9</ele>
        <time>2018-06-02T15:44:45.000Z</time>
      </trkpt>
      <trkpt lat="45.66002" lon="12.43341">
        <ele>-1.2</ele>
        <time>2018-06-02T15:47:12.000Z</time>
      </trkpt>
      <trkpt lat="45.66612" lon="12.4356">
        <ele>9.1</ele>
        <time>2018-06-02T15:49:13.000Z</time>
      </trkpt>
      <trkpt lat="45.67224" lon="12.43799">
        <ele>5.3</ele>
        <time>2018-06-02T15:51:13.000Z</time>
      </trkpt>
      <trkpt lat="45.67806" lon="12.44015">
        <ele>3.3</ele>
        <time>2018-06-02T15:53:14.000Z</time>
      </trkpt>
      <trkpt lat="45.68395" lon="12.44243">
        <ele>8.2</ele>
        <time>2018-06-02T15:55:15.000Z</time>
      </trkpt>
      <trkpt lat="45.68889" lon="12.44531">
        <ele>3.8</ele>
        <time>2018-06-02T15:57:16.000Z</time>
      </trkpt>
      <trkpt lat="45.69488" lon="12.44754">
        <ele>3.8</ele>
        <time>2018-06-02T15:59:17.000Z</time>
      </trkpt>
      <trkpt lat="45.70122" lon="12.44977">
        <ele>3.7</ele>
        <time>2018-06-02T16:01:18.000Z</time>
      </trkpt>
      <trkpt lat="45.70637" lon="12.4483">
        <ele>11.1</ele>
        <time>2018-06-02T16:03:19.000Z</time>
      </trkpt>
      <trkpt lat="45.70863" lon="12.45162">
        <ele>11.4</ele>
        <time>2018-06-02T16:05:20.000Z</time>
      </trkpt>
      <trkpt lat="45.71387" lon="12.45759">
        <ele>6.9</ele>
        <time>2018-06-02T16:07:21.000Z</time>
      </trkpt>
      <trkpt lat="45.71594" lon="12.4651">
        <ele>8</ele>
        <time>2018-06-02T16:09:22.000Z</time>
      </trkpt>
      <trkpt lat="45.72239" lon="12.47041">
        <ele>8.6</ele>
        <time>2018-06-02T16:11:23.000Z</time>
      </trkpt>
      <trkpt lat="45.7294" lon="12.47381">
        <ele>5.7</ele>
        <time>2018-06-02T16:13:24.000Z</time>
      </trkpt>
      <trkpt lat="45.73622" lon="12.47486">
        <ele>5.8</ele>
        <time>2018-06-02T16:15:25.000Z</time>
      </trkpt>
      <trkpt lat="45.74241" lon="12.47617">
        <ele>4.2</ele>
        <time>2018-06-02T16:17:26.000Z</time>
      </trkpt>
      <trkpt lat="45.74518" lon="12.47677">
        <ele>2.9</ele>
        <time>2018-06-02T16:19:27.000Z</time>
      </trkpt>
      <trkpt lat="45.75089" lon="12.47963">
        <ele>6.9</ele>
        <time>2018-06-02T16:21:28.000Z</time>
      </trkpt>
      <trkpt lat="45.75752" lon="12.48277">
        <ele>4.9</ele>
        <time>2018-06-02T16:23:29.000Z</time>
      </trkpt>
      <trkpt lat="45.76039" lon="12.48498">
        <ele>3.2</ele>
        <time>2018-06-02T16:25:30.000Z</time>
      </trkpt>
      <trkpt lat="45.76217" lon="12.48529">
        <ele>1.5</ele>
        <time>2018-06-02T16:27:49.000Z</time>
      </trkpt>
      <trkpt lat="45.76693" lon="12.48723">
        <ele>6.3</ele>
        <time>2018-06-02T16:29:50.000Z</time>
      </trkpt>
      <trkpt lat="45.77213" lon="12.48877">
        <ele>13.9</ele>
        <time>2018-06-02T16:31:51.000Z</time>
      </trkpt>
      <trkpt lat="45.77395" lon="12.48906">
        <ele>6.3</ele>
        <time>2018-06-02T16:34:59.000Z</time>
      </trkpt>
      <trkpt lat="45.77864" lon="12.49103">
        <ele>18.7</ele>
        <time>2018-06-02T16:37:00.000Z</time>
      </trkpt>
      <trkpt lat="45.78123" lon="12.49429">
        <ele>11.9</ele>
        <time>2018-06-02T16:39:01.000Z</time>
      </trkpt>
      <trkpt lat="45.77959" lon="12.49539">
        <ele>11.7</ele>
        <time>2018-06-02T16:43:19.000Z</time>
      </trkpt>
      <trkpt lat="45.77997" lon="12.49287">
        <ele>12.8</ele>
        <time>2018-06-02T17:07:14.000Z</time>
      </trkpt>
      <trkpt lat="45.78238" lon="12.49412">
        <ele>25.5</ele>
        <time>2018-06-02T17:09:15.000Z</time>
      </trkpt>
      <trkpt lat="45.78391" lon="12.49549">
        <ele>17.8</ele>
        <time>2018-06-02T17:12:02.000Z</time>
      </trkpt>
      <trkpt lat="45.78993" lon="12.49621">
        <ele>7.9</ele>
        <time>2018-06-02T17:14:03.000Z</time>
      </trkpt>
      <trkpt lat="45.79508" lon="12.49307">
        <ele>9.3</ele>
        <time>2018-06-02T17:16:04.000Z</time>
      </trkpt>
      <trkpt lat="45.80173" lon="12.49187">
        <ele>11.5</ele>
        <time>2018-06-02T17:18:05.000Z</time>
      </trkpt>
      <trkpt lat="45.80639" lon="12.49215">
        <ele>10.3</ele>
        <time>2018-06-02T17:20:06.000Z</time>
      </trkpt>
      <trkpt lat="45.80837" lon="12.48731">
        <ele>7.2</ele>
        <time>2018-06-02T17:22:07.000Z</time>
      </trkpt>
      <trkpt lat="45.81179" lon="12.4793">
        <ele>5</ele>
        <time>2018-06-02T17:24:07.000Z</time>
      </trkpt>
      <trkpt lat="45.81518" lon="12.47303">
        <ele>10.6</ele>
        <time>2018-06-02T17:26:08.000Z</time>
      </trkpt>
      <trkpt lat="45.82139" lon="12.47204">
        <ele>12</ele>
        <time>2018-06-02T17:28:08.000Z</time>
      </trkpt>
      <trkpt lat="45.82733" lon="12.47136">
        <ele>11.5</ele>
        <time>2018-06-02T17:30:09.000Z</time>
      </trkpt>
      <trkpt lat="45.83238" lon="12.46662">
        <ele>12.6</ele>
        <time>2018-06-02T17:32:10.000Z</time>
      </trkpt>
      <trkpt lat="45.83643" lon="12.46063">
        <ele>12.2</ele>
        <time>2018-06-02T17:34:11.000Z</time>
      </trkpt>
      <trkpt lat="45.83944" lon="12.45225">
        <ele>15.8</ele>
        <time>2018-06-02T17:36:12.000Z</time>
      </trkpt>
      <trkpt lat="45.84232" lon="12.44412">
        <ele>14</ele>
        <time>2018-06-02T17:38:12.000Z</time>
      </trkpt>
      <trkpt lat="45.84674" lon="12.44151">
        <ele>15.9</ele>
        <time>2018-06-02T17:40:13.000Z</time>
      </trkpt>
      <trkpt lat="45.8539" lon="12.43914">
        <ele>15.6</ele>
        <time>2018-06-02T17:42:13.000Z</time>
      </trkpt>
      <trkpt lat="45.86018" lon="12.43648">
        <ele>17</ele>
        <time>2018-06-02T17:44:14.000Z</time>
      </trkpt>
      <trkpt lat="45.8657" lon="12.43561">
        <ele>18.1</ele>
        <time>2018-06-02T17:46:15.000Z</time>
      </trkpt>
      <trkpt lat="45.86701" lon="12.43376">
        <ele>21.1</ele>
        <time>2018-06-02T17:48:47.000Z</time>
      </trkpt>
      <trkpt lat="45.871" lon="12.43046">
        <ele>20.7</ele>
        <time>2018-06-02T17:50:48.000Z</time>
      </trkpt>
      <trkpt lat="45.87787" lon="12.43187">
        <ele>20.7</ele>
        <time>2018-06-02T17:52:49.000Z</time>
      </trkpt>
      <trkpt lat="45.88465" lon="12.43502">
        <ele>22.7</ele>
        <time>2018-06-02T17:54:50.000Z</time>
      </trkpt>
      <trkpt lat="45.8911" lon="12.43696">
        <ele>20.7</ele>
        <time>2018-06-02T17:56:51.000Z</time>
      </trkpt>
      <trkpt lat="45.89488" lon="12.43648">
        <ele>33.9</ele>
        <time>2018-06-02T17:58:51.000Z</time>
      </trkpt>
      <trkpt lat="45.90238" lon="12.43715">
        <ele>23.9</ele>
        <time>2018-06-02T18:00:52.000Z</time>
      </trkpt>
      <trkpt lat="45.90621" lon="12.43783">
        <ele>27.6</ele>
        <time>2018-06-02T18:02:53.000Z</time>
      </trkpt>
      <trkpt lat="45.90916" lon="12.43472">
        <ele>29.6</ele>
        <time>2018-06-02T18:04:54.000Z</time>
      </trkpt>
      <trkpt lat="45.91542" lon="12.43692">
        <ele>27.4</ele>
        <time>2018-06-02T18:06:55.000Z</time>
      </trkpt>
      <trkpt lat="45.91992" lon="12.43407">
        <ele>30.1</ele>
        <time>2018-06-02T18:08:56.000Z</time>
      </trkpt>
      <trkpt lat="45.92441" lon="12.42908">
        <ele>37.8</ele>
        <time>2018-06-02T18:10:56.000Z</time>
      </trkpt>
      <trkpt lat="45.92679" lon="12.42569">
        <ele>39.7</ele>
        <time>2018-06-02T18:12:57.000Z</time>
      </trkpt>
      <trkpt lat="45.93092" lon="12.42342">
        <ele>44.6</ele>
        <time>2018-06-02T18:14:58.000Z</time>
      </trkpt>
      <trkpt lat="45.93435" lon="12.41553">
        <ele>45.7</ele>
        <time>2018-06-02T18:16:59.000Z</time>
      </trkpt>
      <trkpt lat="45.93546" lon="12.41765">
        <ele>47.3</ele>
        <time>2018-06-02T18:19:50.000Z</time>
      </trkpt>
      <trkpt lat="45.94078" lon="12.41758">
        <ele>47.6</ele>
        <time>2018-06-02T18:21:51.000Z</time>
      </trkpt>
      <trkpt lat="45.94613" lon="12.41651">
        <ele>50.9</ele>
        <time>2018-06-02T18:23:52.000Z</time>
      </trkpt>
      <trkpt lat="45.94854" lon="12.41587">
        <ele>55.6</ele>
        <time>2018-06-02T18:25:53.000Z</time>
      </trkpt>
      <trkpt lat="45.95504" lon="12.41984">
        <ele>59.3</ele>
        <time>2018-06-02T18:27:53.000Z</time>
      </trkpt>
      <trkpt lat="45.95815" lon="12.42892">
        <ele>49.8</ele>
        <time>2018-06-02T18:29:54.000Z</time>
      </trkpt>
      <trkpt lat="45.96232" lon="12.43567">
        <ele>47.5</ele>
        <time>2018-06-02T18:31:55.000Z</time>
      </trkpt>
      <trkpt lat="45.96378" lon="12.43719">
        <ele>47.2</ele>
        <time>2018-06-02T18:37:40.000Z</time>
      </trkpt>
      <trkpt lat="45.96549" lon="12.43558">
        <ele>49.7</ele>
        <time>2018-06-02T18:39:41.000Z</time>
      </trkpt>
      <trkpt lat="45.96685" lon="12.43388">
        <ele>56</ele>
        <time>2018-06-02T18:44:56.000Z</time>
      </trkpt>
      <trkpt lat="45.96726" lon="12.43135">
        <ele>64.2</ele>
        <time>2018-06-02T18:46:59.000Z</time>
      </trkpt>
      <trkpt lat="45.96835" lon="12.42923">
        <ele>73.1</ele>
        <time>2018-06-02T18:49:06.000Z</time>
      </trkpt>
      <trkpt lat="45.96752" lon="12.42692">
        <ele>71.2</ele>
        <time>2018-06-02T18:54:25.000Z</time>
      </trkpt>
      <trkpt lat="45.96575" lon="12.42648">
        <ele>67.3</ele>
        <time>2018-06-02T19:01:13.000Z</time>
      </trkpt>
    </trkseg>
  </trk>
</gpx>